sensor_id;sensor_type;location;lat;lon;timestamp;P1;durP1;ratioP1;P2;durP2;ratioP2
55663;SDS011;41540;57.880;12.164;2022-12-18T00:00:40;38.55;;;19.77;;
55663;SDS011;41540;57.880;12.164;2022-12-18T00:10:42;40.20;;;19.35;;
55663;SDS011;41540;57.880;12.164;2022-12-18T00:20:42;50.17;;;18.42;;
55663;SDS011;41540;57.880;12.164;2022-12-18T00:30:43;25.55;;;13.00;;
55663;SDS011;41540;57.880;12.164;2022-12-18T00:40:43;20.38;;;11.93;;
55663;SDS011;41540;57.880;12.164;2022-12-18T00:50:43;23.30;;;12.68;;
55663;SDS011;41540;57.880;12.164;2022-12-18T01:00:44;14.52;;;9.13;;
55663;SDS011;41540;57.880;12.164;2022-12-18T01:10:44;19.30;;;9.10;;
55663;SDS011;41540;57.880;12.164;2022-12-18T01:20:45;14.25;;;7.20;;
55663;SDS011;41540;57.880;12.164;2022-12-18T01:30:45;15.38;;;10.48;;
55663;SDS011;41540;57.880;12.164;2022-12-18T01:40:45;20.80;;;11.45;;
55663;SDS011;41540;57.880;12.164;2022-12-18T01:50:46;15.18;;;7.60;;
55663;SDS011;41540;57.880;12.164;2022-12-18T02:00:46;8.82;;;5.28;;
55663;SDS011;41540;57.880;12.164;2022-12-18T02:10:54;9.27;;;5.97;;
55663;SDS011;41540;57.880;12.164;2022-12-18T02:21:12;12.73;;;6.65;;
55663;SDS011;41540;57.880;12.164;2022-12-18T02:31:24;7.82;;;5.38;;
55663;SDS011;41540;57.880;12.164;2022-12-18T02:41:27;12.02;;;7.45;;
55663;SDS011;41540;57.880;12.164;2022-12-18T02:51:41;20.73;;;11.63;;
55663;SDS011;41540;57.880;12.164;2022-12-18T03:01:52;28.67;;;12.70;;
55663;SDS011;41540;57.880;12.164;2022-12-18T03:12:09;35.65;;;15.05;;
55663;SDS011;41540;57.880;12.164;2022-12-18T03:22:26;26.35;;;14.75;;
55663;SDS011;41540;57.880;12.164;2022-12-18T03:32:31;65.15;;;16.92;;
55663;SDS011;41540;57.880;12.164;2022-12-18T03:42:48;36.87;;;13.03;;
55663;SDS011;41540;57.880;12.164;2022-12-18T03:52:58;20.52;;;12.32;;
55663;SDS011;41540;57.880;12.164;2022-12-18T04:03:06;40.85;;;14.82;;
55663;SDS011;41540;57.880;12.164;2022-12-18T04:13:09;25.10;;;11.80;;
55663;SDS011;41540;57.880;12.164;2022-12-18T04:23:09;27.73;;;13.05;;
55663;SDS011;41540;57.880;12.164;2022-12-18T04:33:10;21.08;;;12.88;;
55663;SDS011;41540;57.880;12.164;2022-12-18T04:43:11;21.77;;;11.27;;
55663;SDS011;41540;57.880;12.164;2022-12-18T04:53:12;16.65;;;10.48;;
55663;SDS011;41540;57.880;12.164;2022-12-18T05:03:12;24.90;;;13.43;;
55663;SDS011;41540;57.880;12.164;2022-12-18T05:13:12;21.73;;;11.73;;
55663;SDS011;41540;57.880;12.164;2022-12-18T05:23:13;15.15;;;8.95;;
55663;SDS011;41540;57.880;12.164;2022-12-18T05:33:13;22.05;;;8.57;;
55663;SDS011;41540;57.880;12.164;2022-12-18T05:43:14;16.85;;;8.68;;
55663;SDS011;41540;57.880;12.164;2022-12-18T05:53:15;14.73;;;6.43;;
55663;SDS011;41540;57.880;12.164;2022-12-18T06:03:17;13.27;;;7.70;;
55663;SDS011;41540;57.880;12.164;2022-12-18T06:13:17;37.58;;;10.10;;
55663;SDS011;41540;57.880;12.164;2022-12-18T06:23:18;18.80;;;7.55;;
55663;SDS011;41540;57.880;12.164;2022-12-18T06:33:18;27.58;;;8.13;;
55663;SDS011;41540;57.880;12.164;2022-12-18T06:43:19;10.32;;;5.25;;
55663;SDS011;41540;57.880;12.164;2022-12-18T06:53:19;11.15;;;6.85;;
55663;SDS011;41540;57.880;12.164;2022-12-18T07:03:20;16.33;;;8.13;;
55663;SDS011;41540;57.880;12.164;2022-12-18T07:13:20;12.27;;;6.25;;
55663;SDS011;41540;57.880;12.164;2022-12-18T07:23:20;18.85;;;7.80;;
55663;SDS011;41540;57.880;12.164;2022-12-18T07:33:21;24.92;;;6.57;;
55663;SDS011;41540;57.880;12.164;2022-12-18T07:43:21;12.43;;;5.28;;
55663;SDS011;41540;57.880;12.164;2022-12-18T07:53:21;33.38;;;6.68;;
55663;SDS011;41540;57.880;12.164;2022-12-18T08:03:22;8.70;;;5.07;;
55663;SDS011;41540;57.880;12.164;2022-12-18T08:13:22;10.65;;;4.88;;
55663;SDS011;41540;57.880;12.164;2022-12-18T08:23:23;21.63;;;6.43;;
55663;SDS011;41540;57.880;12.164;2022-12-18T08:33:24;12.40;;;4.60;;
55663;SDS011;41540;57.880;12.164;2022-12-18T08:43:25;15.93;;;6.73;;
55663;SDS011;41540;57.880;12.164;2022-12-18T08:53:44;14.15;;;5.78;;
55663;SDS011;41540;57.880;12.164;2022-12-18T09:03:48;14.02;;;4.68;;
55663;SDS011;41540;57.880;12.164;2022-12-18T09:23:50;10.95;;;5.22;;
55663;SDS011;41540;57.880;12.164;2022-12-18T09:33:51;8.93;;;5.80;;
55663;SDS011;41540;57.880;12.164;2022-12-18T09:43:53;17.15;;;6.18;;
55663;SDS011;41540;57.880;12.164;2022-12-18T09:54:02;10.70;;;6.05;;
55663;SDS011;41540;57.880;12.164;2022-12-18T10:34:41;20.95;;;6.03;;
55663;SDS011;41540;57.880;12.164;2022-12-18T10:44:45;17.27;;;6.80;;
55663;SDS011;41540;57.880;12.164;2022-12-18T10:54:50;15.98;;;5.95;;
55663;SDS011;41540;57.880;12.164;2022-12-18T11:04:54;20.40;;;10.32;;
55663;SDS011;41540;57.880;12.164;2022-12-18T11:14:58;9.07;;;6.28;;
55663;SDS011;41540;57.880;12.164;2022-12-18T11:45:31;8.32;;;4.68;;
55663;SDS011;41540;57.880;12.164;2022-12-18T12:16:28;12.45;;;5.45;;
55663;SDS011;41540;57.880;12.164;2022-12-18T12:47:38;12.70;;;4.18;;
55663;SDS011;41540;57.880;12.164;2022-12-18T12:57:46;11.85;;;5.05;;
55663;SDS011;41540;57.880;12.164;2022-12-18T13:07:59;16.52;;;8.55;;
55663;SDS011;41540;57.880;12.164;2022-12-18T13:18:20;26.67;;;7.88;;
55663;SDS011;41540;57.880;12.164;2022-12-18T13:28:23;12.65;;;5.57;;
55663;SDS011;41540;57.880;12.164;2022-12-18T13:38:38;33.13;;;20.20;;
55663;SDS011;41540;57.880;12.164;2022-12-18T13:48:40;19.63;;;7.57;;
55663;SDS011;41540;57.880;12.164;2022-12-18T13:59:13;13.48;;;6.15;;
55663;SDS011;41540;57.880;12.164;2022-12-18T14:09:25;13.20;;;7.82;;
55663;SDS011;41540;57.880;12.164;2022-12-18T14:19:28;6.10;;;4.05;;
55663;SDS011;41540;57.880;12.164;2022-12-18T14:29:30;16.75;;;6.30;;
55663;SDS011;41540;57.880;12.164;2022-12-18T14:39:31;58.63;;;38.80;;
55663;SDS011;41540;57.880;12.164;2022-12-18T14:49:32;17.02;;;4.57;;
55663;SDS011;41540;57.880;12.164;2022-12-18T14:59:34;21.15;;;7.90;;
55663;SDS011;41540;57.880;12.164;2022-12-18T15:09:34;14.63;;;7.00;;
55663;SDS011;41540;57.880;12.164;2022-12-18T15:19:37;35.35;;;8.90;;
55663;SDS011;41540;57.880;12.164;2022-12-18T15:29:39;28.27;;;9.80;;
55663;SDS011;41540;57.880;12.164;2022-12-18T15:39:39;18.67;;;7.82;;
55663;SDS011;41540;57.880;12.164;2022-12-18T15:49:40;16.98;;;6.57;;
55663;SDS011;41540;57.880;12.164;2022-12-18T15:59:40;10.88;;;6.93;;
55663;SDS011;41540;57.880;12.164;2022-12-18T16:09:41;27.67;;;11.40;;
55663;SDS011;41540;57.880;12.164;2022-12-18T16:19:42;27.38;;;13.73;;
55663;SDS011;41540;57.880;12.164;2022-12-18T16:29:42;34.47;;;16.50;;
55663;SDS011;41540;57.880;12.164;2022-12-18T16:39:43;43.80;;;19.90;;
55663;SDS011;41540;57.880;12.164;2022-12-18T16:49:44;47.13;;;21.08;;
55663;SDS011;41540;57.880;12.164;2022-12-18T16:59:46;51.83;;;22.55;;
55663;SDS011;41540;57.880;12.164;2022-12-18T17:09:47;53.78;;;23.80;;
55663;SDS011;41540;57.880;12.164;2022-12-18T17:19:50;85.35;;;24.17;;
55663;SDS011;41540;57.880;12.164;2022-12-18T17:29:51;73.65;;;23.75;;
55663;SDS011;41540;57.880;12.164;2022-12-18T17:39:53;44.00;;;19.15;;
55663;SDS011;41540;57.880;12.164;2022-12-18T17:49:53;64.22;;;25.15;;
55663;SDS011;41540;57.880;12.164;2022-12-18T17:59:54;44.90;;;23.88;;
55663;SDS011;41540;57.880;12.164;2022-12-18T18:09:54;78.60;;;25.23;;
55663;SDS011;41540;57.880;12.164;2022-12-18T18:19:55;55.20;;;21.65;;
55663;SDS011;41540;57.880;12.164;2022-12-18T18:29:55;58.75;;;21.80;;
55663;SDS011;41540;57.880;12.164;2022-12-18T18:39:56;79.38;;;29.38;;
55663;SDS011;41540;57.880;12.164;2022-12-18T18:49:56;73.15;;;27.33;;
55663;SDS011;41540;57.880;12.164;2022-12-18T18:59:56;76.38;;;24.25;;
55663;SDS011;41540;57.880;12.164;2022-12-18T19:10:00;66.30;;;24.90;;
55663;SDS011;41540;57.880;12.164;2022-12-18T19:20:01;69.05;;;28.15;;
55663;SDS011;41540;57.880;12.164;2022-12-18T19:30:01;61.17;;;25.92;;
55663;SDS011;41540;57.880;12.164;2022-12-18T19:40:02;60.33;;;24.20;;
55663;SDS011;41540;57.880;12.164;2022-12-18T19:50:03;76.95;;;27.55;;
55663;SDS011;41540;57.880;12.164;2022-12-18T20:00:03;79.22;;;26.10;;
55663;SDS011;41540;57.880;12.164;2022-12-18T20:10:05;73.80;;;30.67;;
55663;SDS011;41540;57.880;12.164;2022-12-18T20:20:09;58.03;;;29.70;;
55663;SDS011;41540;57.880;12.164;2022-12-18T20:30:10;52.83;;;25.13;;
55663;SDS011;41540;57.880;12.164;2022-12-18T20:40:11;41.58;;;19.88;;
55663;SDS011;41540;57.880;12.164;2022-12-18T20:50:11;33.10;;;16.83;;
55663;SDS011;41540;57.880;12.164;2022-12-18T21:00:12;27.70;;;12.45;;
55663;SDS011;41540;57.880;12.164;2022-12-18T21:10:13;20.55;;;10.32;;
55663;SDS011;41540;57.880;12.164;2022-12-18T21:20:13;23.40;;;10.35;;
55663;SDS011;41540;57.880;12.164;2022-12-18T21:30:14;10.75;;;6.90;;
55663;SDS011;41540;57.880;12.164;2022-12-18T21:40:15;15.07;;;6.68;;
55663;SDS011;41540;57.880;12.164;2022-12-18T21:50:16;25.65;;;8.18;;
55663;SDS011;41540;57.880;12.164;2022-12-18T22:00:16;17.33;;;8.23;;
55663;SDS011;41540;57.880;12.164;2022-12-18T22:10:17;15.30;;;7.47;;
55663;SDS011;41540;57.880;12.164;2022-12-18T22:20:17;14.15;;;7.22;;
55663;SDS011;41540;57.880;12.164;2022-12-18T22:30:18;18.35;;;8.02;;
55663;SDS011;41540;57.880;12.164;2022-12-18T22:40:20;15.45;;;7.53;;
55663;SDS011;41540;57.880;12.164;2022-12-18T22:50:23;17.35;;;7.53;;
55663;SDS011;41540;57.880;12.164;2022-12-18T23:00:23;18.38;;;9.35;;
55663;SDS011;41540;57.880;12.164;2022-12-18T23:10:24;20.27;;;8.32;;
55663;SDS011;41540;57.880;12.164;2022-12-18T23:20:25;16.30;;;8.40;;
55663;SDS011;41540;57.880;12.164;2022-12-18T23:30:26;15.52;;;8.43;;
55663;SDS011;41540;57.880;12.164;2022-12-18T23:40:27;25.25;;;10.43;;
55663;SDS011;41540;57.880;12.164;2022-12-18T23:50:28;20.25;;;9.77;;
